Time;durP1;ratioP1;P1;durP2;ratioP2;P2;SDS_P1;SDS_P2;PMS_P1;PMS_P2;Temp;Humidity;BMP_temperature;BMP_pressure;BME280_temperature;BME280_humidity;BME280_pressure;Samples;Min_cycle;Max_cycle;Signal;HPM_P1;HPM_P2
2022/03/20 00:01:59;;;;;;;23.23;12.55;;;7.50;90.30;;;;;;4144582;28;20121;-66
2022/03/20 00:04:00;;;;;;;23.38;13.05;;;7.50;90.40;;;;;;4144936;28;20050;-66
2022/03/20 00:06:00;;;;;;;26.60;14.02;;;7.60;90.40;;;;;;4144374;28;20161;-66
2022/03/20 00:08:01;;;;;;;21.73;13.32;;;7.50;90.40;;;;;;4145612;28;20038;-66
2022/03/20 00:10:04;;;;;;;23.38;13.90;;;7.50;90.30;;;;;;4145003;28;20045;-68
2022/03/20 00:12:05;;;;;;;25.75;14.32;;;7.40;90.30;;;;;;4145114;28;20037;-66
2022/03/20 00:14:06;;;;;;;25.42;14.45;;;7.40;90.10;;;;;;4142560;28;20033;-67
2022/03/20 00:16:06;;;;;;;22.90;14.25;;;7.40;90.30;;;;;;4143699;28;20053;-66
2022/03/20 00:18:09;;;;;;;25.90;14.23;;;7.30;90.10;;;;;;4144449;28;20477;-66
2022/03/20 00:20:10;;;;;;;25.73;14.52;;;7.30;90.20;;;;;;4144128;28;20401;-68
2022/03/20 00:22:11;;;;;;;23.58;14.40;;;7.30;90.10;;;;;;4141365;28;20141;-66
2022/03/20 00:24:11;;;;;;;25.95;14.73;;;7.20;90.20;;;;;;4146158;28;20103;-66
2022/03/20 00:26:15;;;;;;;29.02;15.52;;;7.20;90.10;;;;;;4146339;28;20038;-67
2022/03/20 00:28:19;;;;;;;26.98;15.35;;;7.20;90.00;;;;;;4145132;28;20088;-66
2022/03/20 00:30:19;;;;;;;26.20;15.35;;;7.20;89.80;;;;;;4143438;28;20029;-66
2022/03/20 00:32:20;;;;;;;26.35;14.90;;;7.10;90.00;;;;;;4143862;28;20050;-66
2022/03/20 00:34:20;;;;;;;29.60;15.75;;;7.20;90.10;;;;;;4143618;28;20064;-66
2022/03/20 00:36:21;;;;;;;28.40;15.40;;;7.20;90.40;;;;;;4144325;28;20117;-67
2022/03/20 00:38:22;;;;;;;23.98;14.68;;;7.20;90.10;;;;;;4139505;28;20066;-66
2022/03/20 00:40:23;;;;;;;28.90;15.73;;;7.10;90.30;;;;;;4143633;28;20034;-66
2022/03/20 00:42:23;;;;;;;25.08;15.27;;;7.00;90.30;;;;;;4142713;28;20149;-67
2022/03/20 00:44:24;;;;;;;28.27;15.40;;;7.00;90.40;;;;;;4144698;28;20042;-66
2022/03/20 00:46:26;;;;;;;27.38;15.40;;;7.00;90.60;;;;;;4143131;28;20120;-66
2022/03/20 00:48:27;;;;;;;33.50;15.32;;;7.00;90.60;;;;;;4144152;28;20041;-67
2022/03/20 00:50:29;;;;;;;25.65;14.57;;;7.00;90.80;;;;;;4141326;28;20042;-66
2022/03/20 00:52:32;;;;;;;26.90;15.52;;;7.00;90.80;;;;;;4143423;28;20076;-66
2022/03/20 00:54:33;;;;;;;28.52;16.20;;;6.90;90.80;;;;;;4143346;28;20042;-66
2022/03/20 00:56:33;;;;;;;29.92;15.95;;;6.90;90.80;;;;;;4143211;28;20495;-66
2022/03/20 00:58:35;;;;;;;30.75;16.23;;;6.90;90.70;;;;;;4145044;28;20038;-66
2022/03/20 01:00:35;;;;;;;28.42;15.60;;;6.90;90.80;;;;;;4138763;28;20045;-66
2022/03/20 01:02:41;;;;;;;27.80;15.48;;;7.00;90.70;;;;;;4144796;28;20038;-66
2022/03/20 01:04:42;;;;;;;32.47;16.15;;;6.90;90.90;;;;;;4143245;28;20048;-66
2022/03/20 01:06:43;;;;;;;29.10;15.48;;;6.80;90.70;;;;;;4144558;28;20393;-65
2022/03/20 01:08:43;;;;;;;28.48;16.23;;;6.80;90.70;;;;;;4143937;28;20046;-67
2022/03/20 01:10:44;;;;;;;28.42;15.82;;;6.80;90.50;;;;;;4141139;28;20138;-66
2022/03/20 01:12:44;;;;;;;27.60;15.63;;;6.80;90.60;;;;;;4143546;28;20033;-66
2022/03/20 01:14:45;;;;;;;29.58;15.38;;;6.80;90.50;;;;;;4144081;28;20038;-66
2022/03/20 01:16:46;;;;;;;27.65;15.55;;;6.70;90.50;;;;;;4142427;28;20038;-66
2022/03/20 01:18:46;;;;;;;28.85;16.40;;;6.70;90.40;;;;;;4142915;28;20046;-66
2022/03/20 01:20:47;;;;;;;29.50;15.50;;;6.70;90.20;;;;;;4141933;28;20461;-66
2022/03/20 01:22:47;;;;;;;29.73;15.82;;;6.70;90.10;;;;;;4145643;28;20464;-66
2022/03/20 01:24:48;;;;;;;25.70;15.73;;;6.70;90.00;;;;;;4141808;28;20069;-66
2022/03/20 01:26:48;;;;;;;26.42;15.70;;;6.70;89.80;;;;;;4142295;28;20040;-66
2022/03/20 01:28:49;;;;;;;27.92;15.93;;;6.70;89.50;;;;;;4142530;28;20496;-66
2022/03/20 01:30:50;;;;;;;30.92;16.55;;;6.80;89.30;;;;;;4143569;28;20504;-66
2022/03/20 01:32:50;;;;;;;31.13;15.63;;;6.70;89.00;;;;;;4142402;28;20149;-66
2022/03/20 01:34:51;;;;;;;30.05;16.20;;;6.70;89.30;;;;;;4141965;28;20084;-66
2022/03/20 01:36:52;;;;;;;32.53;16.40;;;6.70;89.10;;;;;;4143124;28;20124;-65
2022/03/20 01:38:54;;;;;;;28.83;15.55;;;6.60;88.20;;;;;;4141496;28;20397;-66
2022/03/20 01:40:54;;;;;;;28.77;16.10;;;6.60;88.30;;;;;;4141819;28;20034;-65
2022/03/20 01:42:55;;;;;;;31.08;16.08;;;6.60;88.30;;;;;;4142020;28;20092;-66
2022/03/20 01:44:55;;;;;;;30.27;16.10;;;6.60;88.30;;;;;;4143699;28;20080;-66
2022/03/20 01:46:56;;;;;;;29.65;16.75;;;6.60;88.20;;;;;;4140399;28;20061;-66
2022/03/20 01:48:57;;;;;;;31.23;17.00;;;6.60;87.80;;;;;;4142490;28;20041;-66
2022/03/20 01:50:57;;;;;;;36.28;16.52;;;6.60;87.90;;;;;;4142590;28;20401;-66
2022/03/20 01:52:58;;;;;;;30.92;15.32;;;6.60;87.30;;;;;;4139052;28;20040;-66
2022/03/20 01:54:59;;;;;;;32.13;16.88;;;6.60;86.90;;;;;;4143898;28;20042;-66
2022/03/20 01:57:00;;;;;;;32.15;16.70;;;6.50;87.50;;;;;;4141463;28;20046;-66
2022/03/20 01:59:03;;;;;;;31.23;15.80;;;6.50;87.50;;;;;;4142916;28;20030;-66
2022/03/20 02:01:03;;;;;;;29.63;16.33;;;6.50;88.40;;;;;;4140585;28;20442;-66
2022/03/20 02:03:05;;;;;;;29.40;15.93;;;6.40;89.60;;;;;;4139782;28;20054;-66
2022/03/20 02:05:09;;;;;;;29.60;16.58;;;6.30;89.60;;;;;;4140386;28;20126;-68
2022/03/20 02:07:10;;;;;;;30.73;16.05;;;6.30;89.60;;;;;;4143942;28;20034;-66
2022/03/20 02:09:11;;;;;;;25.67;15.10;;;6.30;89.20;;;;;;4143583;28;20088;-66
2022/03/20 02:11:12;;;;;;;28.38;15.43;;;6.40;88.90;;;;;;4143072;28;20041;-66
2022/03/20 02:13:12;;;;;;;32.20;16.67;;;6.30;89.60;;;;;;4142992;28;20046;-65
2022/03/20 02:15:14;;;;;;;33.40;16.63;;;6.30;89.80;;;;;;4142359;28;20058;-66
2022/03/20 02:17:15;;;;;;;29.73;16.30;;;6.30;90.00;;;;;;4142393;28;20042;-66
2022/03/20 02:19:16;;;;;;;31.48;15.65;;;6.30;90.00;;;;;;4143727;28;20068;-66
2022/03/20 02:21:39;;;;;;;28.73;16.23;;;6.20;90.40;;;;;;4142904;28;20441;-66
2022/03/20 02:23:39;;;;;;;37.33;16.97;;;6.20;90.40;;;;;;4144498;28;20049;-66
2022/03/20 02:25:51;;;;;;;31.05;17.67;;;6.20;90.20;;;;;;4142921;28;20065;-66
2022/03/20 02:27:53;;;;;;;30.85;16.92;;;6.20;90.10;;;;;;4124581;28;20122;-66
2022/03/20 02:29:59;;;;;;;33.15;17.15;;;6.20;90.30;;;;;;4142963;28;20046;-66
2022/03/20 02:32:00;;;;;;;31.45;17.23;;;6.20;90.00;;;;;;4141875;28;20030;-66
2022/03/20 02:34:01;;;;;;;38.65;17.20;;;6.20;90.30;;;;;;4145578;28;20073;-66
2022/03/20 02:36:01;;;;;;;30.55;16.55;;;6.20;90.20;;;;;;4146092;28;20050;-66
2022/03/20 02:38:03;;;;;;;31.15;16.55;;;6.20;89.50;;;;;;4146282;28;20050;-66
2022/03/20 02:40:04;;;;;;;39.58;18.17;;;6.10;90.50;;;;;;4146153;28;20466;-68
2022/03/20 02:42:06;;;;;;;31.95;16.48;;;6.10;90.30;;;;;;4144446;28;20034;-66
2022/03/20 02:44:07;;;;;;;32.78;18.27;;;6.10;90.80;;;;;;4148169;28;20656;-66
2022/03/20 02:46:08;;;;;;;31.95;16.88;;;6.10;90.80;;;;;;4145396;28;20073;-65
2022/03/20 02:48:09;;;;;;;30.85;16.95;;;6.10;90.60;;;;;;4162174;28;20044;-66
2022/03/20 02:50:18;;;;;;;33.42;17.73;;;6.00;90.00;;;;;;4147296;28;20038;-66
2022/03/20 02:52:19;;;;;;;34.00;17.58;;;6.10;90.30;;;;;;4144788;28;20394;-66
2022/03/20 02:54:23;;;;;;;30.27;16.42;;;6.10;90.40;;;;;;4149679;28;20424;-66
2022/03/20 02:56:27;;;;;;;31.23;16.15;;;6.10;89.90;;;;;;4146347;28;20485;-66
2022/03/20 02:58:28;;;;;;;34.67;17.23;;;6.10;89.70;;;;;;4149217;28;20470;-66
2022/03/20 03:00:31;;;;;;;37.95;18.48;;;6.10;89.40;;;;;;4146524;28;20038;-66
2022/03/20 03:02:39;;;;;;;37.70;18.38;;;6.20;88.90;;;;;;4145317;28;20045;-66
2022/03/20 03:04:41;;;;;;;33.28;16.58;;;6.10;88.20;;;;;;4146921;28;20042;-66
2022/03/20 03:06:41;;;;;;;30.05;16.30;;;6.10;88.80;;;;;;4146317;28;20034;-66
2022/03/20 03:11:01;;;;;;;33.70;17.65;;;6.10;88.20;;;;;;4144718;28;20038;-66
2022/03/20 03:13:02;;;;;;;30.02;16.38;;;6.10;88.70;;;;;;4144082;28;20057;-66
2022/03/20 03:15:21;;;;;;;29.75;16.60;;;6.10;88.00;;;;;;4145407;28;20269;-68
2022/03/20 03:17:27;;;;;;;35.47;17.73;;;6.20;87.90;;;;;;4145516;28;20034;-66
2022/03/20 03:19:28;;;;;;;33.92;17.50;;;6.10;87.40;;;;;;4144981;28;20034;-66
2022/03/20 03:21:28;;;;;;;33.30;16.23;;;6.20;87.40;;;;;;4144404;28;20362;-67
2022/03/20 03:23:29;;;;;;;34.30;17.70;;;6.10;87.50;;;;;;4145060;28;20053;-66
2022/03/20 03:25:36;;;;;;;31.27;17.05;;;6.20;87.30;;;;;;4145757;28;20045;-66
2022/03/20 03:27:37;;;;;;;32.92;16.95;;;6.20;85.70;;;;;;4143384;28;20041;-66
2022/03/20 03:29:37;;;;;;;31.25;16.63;;;6.20;86.00;;;;;;4146380;28;20572;-66
2022/03/20 03:31:38;;;;;;;34.13;16.67;;;6.10;86.80;;;;;;4144785;28;20117;-66
2022/03/20 03:35:41;;;;;;;33.25;16.75;;;6.10;86.50;;;;;;4145251;28;20050;-67
2022/03/20 03:36:01;;;;;;;32.25;16.45;;;6.20;86.50;;;;;;4142546;28;20038;-66
2022/03/20 03:38:03;;;;;;;31.13;16.33;;;6.20;85.20;;;;;;4144404;28;20084;-66
2022/03/20 03:40:04;;;;;;;31.60;17.08;;;6.20;85.10;;;;;;4146418;28;20512;-69
2022/03/20 03:42:06;;;;;;;26.23;15.67;;;6.20;85.80;;;;;;4144248;28;20038;-66
2022/03/20 03:44:07;;;;;;;34.28;17.00;;;6.20;84.90;;;;;;4144260;28;20041;-66
2022/03/20 03:46:08;;;;;;;30.30;14.90;;;6.20;84.40;;;;;;4142913;28;20116;-66
2022/03/20 03:48:09;;;;;;;34.42;16.05;;;6.20;84.00;;;;;;4144726;28;20046;-66
2022/03/20 03:50:10;;;;;;;29.52;16.90;;;6.20;84.20;;;;;;4143927;28;20482;-67
2022/03/20 03:52:11;;;;;;;32.50;16.70;;;6.10;84.00;;;;;;4145695;28;20137;-66
2022/03/20 03:54:12;;;;;;;29.75;16.35;;;6.20;83.60;;;;;;4146248;28;20041;-66
2022/03/20 03:56:12;;;;;;;29.40;15.65;;;6.20;83.90;;;;;;4144248;28;20042;-66
2022/03/20 03:58:14;;;;;;;33.30;16.08;;;6.20;83.30;;;;;;4145619;28;20025;-66
2022/03/20 04:00:16;;;;;;;30.05;15.80;;;6.20;83.60;;;;;;4142965;28;20514;-66
2022/03/20 04:02:17;;;;;;;;;;;6.30;83.20;;;;;;4145154;28;20513;-66
2022/03/20 04:04:17;;;;;;;29.98;15.35;;;6.30;84.00;;;;;;4145919;28;19916;-66
2022/03/20 04:06:18;;;;;;;33.33;15.93;;;6.30;82.90;;;;;;4144550;28;20049;-66
2022/03/20 04:08:20;;;;;;;28.25;15.15;;;6.20;82.30;;;;;;4145575;28;20042;-66
2022/03/20 04:10:21;;;;;;;27.55;15.15;;;6.20;82.70;;;;;;4141819;28;20070;-66
2022/03/20 04:12:22;;;;;;;31.17;16.33;;;6.20;82.40;;;;;;4144520;28;20042;-66
2022/03/20 04:14:23;;;;;;;33.47;15.35;;;6.20;83.10;;;;;;4146088;28;20229;-66
2022/03/20 04:16:23;;;;;;;26.58;15.00;;;6.20;82.60;;;;;;4144150;28;20474;-66
2022/03/20 04:18:24;;;;;;;32.00;15.60;;;6.20;82.80;;;;;;4142782;28;20437;-66
2022/03/20 04:20:25;;;;;;;29.67;15.43;;;6.20;81.90;;;;;;4144021;28;20096;-66
2022/03/20 04:22:29;;;;;;;27.05;15.30;;;6.20;81.80;;;;;;4144788;28;20145;-66
2022/03/20 04:24:30;;;;;;;29.50;16.02;;;6.20;82.00;;;;;;4143225;28;20034;-66
2022/03/20 04:26:33;;;;;;;30.23;15.10;;;6.20;82.30;;;;;;4144320;28;20109;-66
2022/03/20 04:28:33;;;;;;;29.17;15.95;;;6.20;81.80;;;;;;4145377;28;20038;-66
2022/03/20 04:30:34;;;;;;;32.70;15.27;;;6.20;81.10;;;;;;4141387;28;20532;-66
2022/03/20 04:32:35;;;;;;;29.60;15.98;;;6.20;81.20;;;;;;4143562;28;20079;-66
2022/03/20 04:34:37;;;;;;;32.25;16.33;;;6.10;81.20;;;;;;4146543;28;20450;-67
2022/03/20 04:36:38;;;;;;;27.45;15.02;;;6.20;80.80;;;;;;4142021;28;20038;-66
2022/03/20 04:38:38;;;;;;;30.08;15.43;;;6.20;80.50;;;;;;4143198;28;20359;-66
2022/03/20 04:40:39;;;;;;;30.08;15.02;;;6.20;80.40;;;;;;4140290;28;20034;-66
2022/03/20 04:42:40;;;;;;;30.05;15.27;;;6.30;80.60;;;;;;4142848;28;20060;-66
2022/03/20 04:44:40;;;;;;;30.02;16.52;;;6.30;80.70;;;;;;4145133;28;20045;-66
2022/03/20 04:46:41;;;;;;;35.05;16.58;;;6.20;80.20;;;;;;4144865;28;20038;-66
2022/03/20 05:00:20;;;;;;;30.02;15.35;;;6.20;80.70;;;;;;4143849;28;20048;-67
2022/03/20 05:02:21;;;;;;;27.05;15.20;;;6.20;80.10;;;;;;4144382;28;20129;-66
2022/03/20 05:04:21;;;;;;;27.63;14.48;;;6.20;79.20;;;;;;4148294;28;20037;-66
2022/03/20 05:06:22;;;;;;;29.25;16.30;;;6.20;79.80;;;;;;4146148;28;20702;-66
2022/03/20 05:08:23;;;;;;;29.17;15.85;;;6.10;79.40;;;;;;4145515;28;20045;-66
2022/03/20 05:15:06;;;;;;;30.75;15.68;;;6.10;79.50;;;;;;4143694;28;20042;-68
2022/03/20 05:17:08;;;;;;;31.88;15.98;;;6.00;79.50;;;;;;4143620;28;20030;-66
2022/03/20 05:19:09;;;;;;;31.90;15.63;;;5.90;80.00;;;;;;4144081;28;20038;-66
2022/03/20 05:21:10;;;;;;;28.50;16.05;;;5.90;79.80;;;;;;4147544;28;20049;-66
2022/03/20 05:23:11;;;;;;;28.15;16.27;;;5.80;79.60;;;;;;4128778;28;20054;-66
2022/03/20 05:25:13;;;;;;;29.98;15.18;;;5.80;80.30;;;;;;4142894;28;20037;-67
2022/03/20 05:27:14;;;;;;;30.10;15.98;;;5.70;80.70;;;;;;4145259;28;20041;-66
2022/03/20 05:29:15;;;;;;;31.15;16.40;;;5.70;81.90;;;;;;4143742;28;20409;-65
2022/03/20 05:31:15;;;;;;;29.27;15.93;;;5.70;81.70;;;;;;4143570;28;20054;-66
2022/03/20 05:33:16;;;;;;;30.80;15.98;;;5.70;81.10;;;;;;4144608;28;20528;-66
2022/03/20 05:35:17;;;;;;;26.17;15.32;;;5.60;81.10;;;;;;4143280;28;20065;-66
2022/03/20 05:37:18;;;;;;;31.25;15.80;;;5.60;81.00;;;;;;4145107;28;20121;-66
2022/03/20 05:39:19;;;;;;;29.95;16.02;;;5.60;80.20;;;;;;4146097;28;20046;-66
2022/03/20 05:43:38;;;;;;;32.75;16.63;;;5.60;81.00;;;;;;4141273;28;20038;-66
2022/03/20 05:45:41;;;;;;;30.98;15.70;;;5.50;81.60;;;;;;4144343;28;20116;-66
2022/03/20 05:47:42;;;;;;;30.70;15.48;;;5.50;81.10;;;;;;4144031;28;20054;-66
2022/03/20 05:49:43;;;;;;;30.73;16.48;;;5.50;81.20;;;;;;4144072;28;20038;-66
2022/03/20 05:51:43;;;;;;;29.52;16.15;;;5.50;80.90;;;;;;4142008;28;20034;-66
2022/03/20 05:53:44;;;;;;;27.05;15.20;;;5.40;81.60;;;;;;4146187;28;20080;-66
2022/03/20 05:58:04;;;;;;;29.17;14.77;;;5.40;81.40;;;;;;4142648;28;20034;-66
2022/03/20 06:00:05;;;;;;;30.77;16.98;;;5.50;81.80;;;;;;4145068;28;20065;-67
2022/03/20 06:02:09;;;;;;;27.80;15.43;;;5.50;81.00;;;;;;4144031;28;20441;-66
2022/03/20 06:04:10;;;;;;;30.73;15.10;;;5.40;81.20;;;;;;4142407;28;20037;-67
2022/03/20 06:06:11;;;;;;;27.27;15.00;;;5.40;81.60;;;;;;4141379;28;20042;-66
2022/03/20 06:08:12;;;;;;;29.17;16.58;;;5.50;82.70;;;;;;4149620;28;20053;-66
2022/03/20 06:10:17;;;;;;;33.50;16.35;;;5.30;82.00;;;;;;4145121;28;20034;-67
2022/03/20 06:12:18;;;;;;;30.40;15.48;;;5.40;81.90;;;;;;4143540;28;20042;-66
2022/03/20 06:14:18;;;;;;;29.73;15.82;;;5.50;81.90;;;;;;4143822;28;20451;-66
2022/03/20 06:16:21;;;;;;;31.40;16.02;;;5.40;81.00;;;;;;4145256;28;20041;-66
2022/03/20 06:18:23;;;;;;;27.60;16.00;;;5.40;81.00;;;;;;4144571;28;20041;-66
2022/03/20 06:20:25;;;;;;;29.23;15.48;;;5.40;81.30;;;;;;4142217;28;20039;-66
2022/03/20 06:22:26;;;;;;;36.00;16.10;;;5.40;81.20;;;;;;4144824;28;20049;-66
2022/03/20 06:24:27;;;;;;;30.10;15.02;;;5.40;80.20;;;;;;4146604;28;20044;-66
2022/03/20 06:26:27;;;;;;;26.65;14.02;;;5.50;80.60;;;;;;4142974;28;20456;-66
2022/03/20 06:28:28;;;;;;;30.42;16.13;;;5.50;80.30;;;;;;4144135;28;20065;-66
2022/03/20 06:30:33;;;;;;;27.95;15.40;;;5.50;80.10;;;;;;4143200;28;20088;-66
2022/03/20 06:32:35;;;;;;;26.95;15.43;;;5.50;80.30;;;;;;4142445;28;20064;-67
2022/03/20 06:34:36;;;;;;;30.40;14.90;;;5.60;80.80;;;;;;4144154;28;20037;-66
2022/03/20 06:36:37;;;;;;;31.58;15.90;;;5.60;80.50;;;;;;4143835;28;20142;-66
2022/03/20 06:38:38;;;;;;;31.70;15.60;;;5.60;80.20;;;;;;4145164;28;20385;-66
2022/03/20 06:40:39;;;;;;;30.27;16.33;;;5.60;79.50;;;;;;4144294;28;20034;-66
2022/03/20 06:42:40;;;;;;;38.85;16.77;;;5.70;79.80;;;;;;4145183;28;20426;-66
2022/03/20 06:44:41;;;;;;;26.00;15.05;;;5.80;79.00;;;;;;4143357;28;20053;-66
2022/03/20 06:46:42;;;;;;;28.20;15.82;;;5.80;78.70;;;;;;4143318;28;20037;-67
2022/03/20 06:48:43;;;;;;;27.20;14.77;;;5.90;78.10;;;;;;4145420;28;20034;-66
2022/03/20 06:50:44;;;;;;;28.15;15.70;;;6.00;78.30;;;;;;4142849;28;20444;-66
2022/03/20 06:52:45;;;;;;;32.10;16.08;;;6.00;78.60;;;;;;4145024;28;20030;-67
2022/03/20 06:54:45;;;;;;;26.05;14.98;;;6.10;78.30;;;;;;4147263;28;20104;-66
2022/03/20 06:56:46;;;;;;;27.05;15.50;;;6.10;77.90;;;;;;4144692;28;20034;-65
2022/03/20 06:58:46;;;;;;;26.45;15.00;;;6.20;78.50;;;;;;4143959;28;20048;-66
2022/03/20 07:00:47;;;;;;;28.10;15.25;;;6.20;77.60;;;;;;4143240;28;20026;-66
2022/03/20 07:02:48;;;;;;;33.35;15.43;;;6.30;77.20;;;;;;4147979;28;20044;-66
2022/03/20 07:04:48;;;;;;;30.90;16.02;;;6.30;77.50;;;;;;4145833;28;20041;-66
2022/03/20 07:06:49;;;;;;;31.65;15.18;;;6.30;76.70;;;;;;4142877;28;20053;-66
2022/03/20 07:08:54;;;;;;;30.13;15.63;;;6.40;77.10;;;;;;4142496;28;20432;-67
2022/03/20 07:10:54;;;;;;;31.92;15.50;;;6.40;76.40;;;;;;4146230;28;20033;-67
2022/03/20 07:15:14;;;;;;;25.48;15.27;;;6.30;75.70;;;;;;4141389;28;20046;-67
2022/03/20 07:17:16;;;;;;;26.90;15.00;;;6.40;77.00;;;;;;4144568;28;20060;-67
2022/03/20 07:19:17;;;;;;;27.52;14.88;;;6.60;76.20;;;;;;4140258;28;20053;-66
2022/03/20 07:21:19;;;;;;;28.20;15.25;;;6.70;76.20;;;;;;4145133;28;20033;-66
2022/03/20 07:23:19;;;;;;;28.97;14.90;;;6.70;75.50;;;;;;4146332;28;20046;-66
2022/03/20 07:30:01;;;;;;;28.45;14.68;;;6.60;76.10;;;;;;4114232;28;20034;-66
2022/03/20 07:32:06;;;;;;;33.83;16.52;;;6.60;77.20;;;;;;4146221;28;20071;-66
2022/03/20 07:34:07;;;;;;;30.67;16.35;;;6.50;77.80;;;;;;4147199;28;20088;-66
2022/03/20 07:36:08;;;;;;;26.95;15.23;;;6.50;77.00;;;;;;4145392;28;20042;-66
2022/03/20 07:38:08;;;;;;;28.77;15.30;;;6.70;77.30;;;;;;4145650;28;20168;-66
2022/03/20 07:40:09;;;;;;;28.90;15.48;;;6.70;76.90;;;;;;4146080;28;20042;-68
2022/03/20 07:42:10;;;;;;;33.90;16.60;;;6.80;76.00;;;;;;4145837;28;20137;-67
2022/03/20 07:44:11;;;;;;;30.23;15.65;;;6.80;75.30;;;;;;4143896;28;20057;-67
2022/03/20 07:46:12;;;;;;;26.95;15.68;;;6.80;75.40;;;;;;4144923;28;20068;-67
2022/03/20 07:48:13;;;;;;;26.25;15.52;;;7.00;76.30;;;;;;4145180;28;20381;-66
2022/03/20 07:50:14;;;;;;;34.72;16.90;;;7.10;76.00;;;;;;4146882;28;20037;-67
2022/03/20 07:52:15;;;;;;;28.27;15.50;;;7.20;74.80;;;;;;4147749;28;20177;-67
2022/03/20 07:54:15;;;;;;;30.35;15.55;;;7.30;74.10;;;;;;4145757;28;20029;-67
2022/03/20 07:56:20;;;;;;;28.25;15.73;;;7.30;75.30;;;;;;4146036;28;20062;-67
2022/03/20 07:58:21;;;;;;;28.75;16.10;;;7.20;74.30;;;;;;4146102;28;20057;-68
2022/03/20 08:00:22;;;;;;;30.52;16.75;;;7.20;74.20;;;;;;4144102;28;20462;-67
2022/03/20 08:02:23;;;;;;;28.05;15.05;;;7.30;74.60;;;;;;4146180;28;20113;-66
2022/03/20 08:04:24;;;;;;;28.83;16.50;;;7.10;74.60;;;;;;4144516;28;20045;-67
2022/03/20 08:06:25;;;;;;;29.13;15.30;;;7.00;75.70;;;;;;4144634;28;20042;-66
2022/03/20 08:08:26;;;;;;;23.67;14.55;;;7.10;75.40;;;;;;4142997;28;20118;-67
2022/03/20 08:10:26;;;;;;;27.10;15.30;;;7.00;76.50;;;;;;4144835;28;20436;-67
2022/03/20 08:12:27;;;;;;;29.77;16.88;;;6.90;75.80;;;;;;4144253;28;20038;-67
2022/03/20 08:14:27;;;;;;;28.48;15.93;;;6.90;76.30;;;;;;4143311;28;20054;-67
2022/03/20 08:16:29;;;;;;;27.13;15.52;;;6.90;76.30;;;;;;4147298;28;20049;-67
2022/03/20 08:18:30;;;;;;;29.67;16.48;;;7.00;76.10;;;;;;4145677;28;20092;-67
2022/03/20 08:20:31;;;;;;;31.77;16.85;;;6.90;76.20;;;;;;4146802;28;20491;-67
2022/03/20 08:22:32;;;;;;;29.08;16.25;;;6.80;77.20;;;;;;4142787;28;20046;-67
2022/03/20 08:24:32;;;;;;;29.42;16.27;;;6.90;75.80;;;;;;4145111;28;20042;-66
2022/03/20 08:26:33;;;;;;;30.90;16.58;;;7.00;75.60;;;;;;4142193;28;20173;-66
2022/03/20 08:28:37;;;;;;;37.22;16.50;;;7.10;75.80;;;;;;4144843;28;20571;-67
2022/03/20 08:30:40;;;;;;;31.00;17.27;;;7.30;76.50;;;;;;4144656;28;20046;-66
2022/03/20 08:32:41;;;;;;;30.25;16.50;;;7.40;75.30;;;;;;4146075;28;20035;-67
2022/03/20 08:34:42;;;;;;;31.58;17.33;;;7.50;75.20;;;;;;4143531;28;20050;-66
2022/03/20 08:36:44;;;;;;;28.48;15.80;;;7.60;74.90;;;;;;4143159;28;20069;-66
2022/03/20 08:38:45;;;;;;;26.85;15.90;;;7.70;75.40;;;;;;4137750;28;20064;-67
2022/03/20 08:40:45;;;;;;;30.90;17.60;;;8.00;75.60;;;;;;4143064;28;20034;-67
2022/03/20 08:42:49;;;;;;;32.10;17.08;;;8.10;74.00;;;;;;4141454;28;20048;-67
2022/03/20 08:44:52;;;;;;;39.60;18.45;;;8.30;73.20;;;;;;4143665;28;20061;-66
2022/03/20 08:46:53;;;;;;;35.22;18.60;;;8.40;72.40;;;;;;4142902;28;20096;-67
2022/03/20 08:48:53;;;;;;;38.47;18.15;;;8.50;72.40;;;;;;4143350;28;20034;-67
2022/03/20 08:50:54;;;;;;;32.58;17.67;;;8.70;73.20;;;;;;4144895;28;20030;-67
2022/03/20 08:52:54;;;;;;;34.75;17.67;;;8.80;76.10;;;;;;4144478;28;20030;-67
2022/03/20 08:54:55;;;;;;;31.52;18.00;;;9.00;72.90;;;;;;4143234;28;20048;-67
2022/03/20 08:56:56;;;;;;;34.35;19.60;;;9.10;71.80;;;;;;4144389;28;20124;-67
2022/03/20 08:58:57;;;;;;;35.83;20.73;;;9.30;71.50;;;;;;4143541;28;20458;-67
2022/03/20 09:00:58;;;;;;;36.03;19.42;;;9.30;71.00;;;;;;4142698;28;20090;-67
2022/03/20 09:03:00;;;;;;;35.97;20.27;;;9.50;70.90;;;;;;4144613;28;20109;-67
2022/03/20 09:05:00;;;;;;;30.33;18.60;;;9.50;69.70;;;;;;4143503;28;20049;-67
2022/03/20 09:07:01;;;;;;;34.45;19.67;;;9.50;70.00;;;;;;4141958;28;20104;-66
2022/03/20 09:09:02;;;;;;;37.67;20.88;;;9.40;68.90;;;;;;4144765;28;20034;-66
2022/03/20 09:11:03;;;;;;;34.00;19.45;;;9.40;69.60;;;;;;4141098;28;20069;-67
2022/03/20 09:13:03;;;;;;;35.53;20.00;;;9.50;69.50;;;;;;4146074;28;20468;-67
2022/03/20 09:15:07;;;;;;;30.70;18.55;;;9.30;69.80;;;;;;4143417;28;20049;-68
2022/03/20 09:19:27;;;;;;;35.85;20.05;;;9.40;69.60;;;;;;4143869;28;20038;-67
2022/03/20 09:21:33;;;;;;;30.08;18.60;;;9.50;70.10;;;;;;4142068;28;20156;-67
2022/03/20 09:23:33;;;;;;;35.45;20.17;;;9.70;70.10;;;;;;4125775;28;20046;-66
2022/03/20 09:25:34;;;;;;;34.80;20.08;;;9.70;69.70;;;;;;4141742;28;20396;-67
2022/03/20 09:27:35;;;;;;;33.38;19.45;;;9.60;69.70;;;;;;4159110;28;20390;-67
2022/03/20 09:29:36;;;;;;;33.92;18.67;;;9.70;70.00;;;;;;4144763;28;20040;-67
2022/03/20 09:31:36;;;;;;;36.40;20.08;;;9.80;69.80;;;;;;4141541;28;20501;-68
2022/03/20 09:33:37;;;;;;;30.55;18.98;;;9.90;69.80;;;;;;4142156;28;20108;-67
2022/03/20 09:35:38;;;;;;;35.50;20.02;;;10.10;69.70;;;;;;4142597;28;20054;-67
2022/03/20 09:37:39;;;;;;;38.33;20.65;;;10.10;69.10;;;;;;4141093;28;20072;-67
2022/03/20 09:39:39;;;;;;;30.17;18.17;;;10.20;68.50;;;;;;4144123;28;20045;-67
2022/03/20 09:41:41;;;;;;;34.00;20.13;;;10.30;71.30;;;;;;4143193;28;20046;-67
2022/03/20 09:43:44;;;;;;;32.38;19.40;;;10.50;70.80;;;;;;4141795;28;20038;-67
2022/03/20 09:45:47;;;;;;;31.48;18.77;;;10.40;68.80;;;;;;4141851;28;20465;-67
2022/03/20 09:47:48;;;;;;;36.83;20.15;;;10.40;69.70;;;;;;4144479;28;20030;-66
2022/03/20 09:49:49;;;;;;;30.98;18.15;;;10.40;69.10;;;;;;4144526;28;20041;-67
2022/03/20 09:51:50;;;;;;;34.45;20.02;;;10.40;69.10;;;;;;4140110;28;20105;-68
2022/03/20 09:53:51;;;;;;;32.78;18.58;;;10.40;68.90;;;;;;4144048;28;20038;-67
2022/03/20 09:55:55;;;;;;;32.42;20.48;;;10.40;69.60;;;;;;4142078;28;20038;-67
2022/03/20 09:57:56;;;;;;;34.80;20.48;;;10.30;68.90;;;;;;4142394;28;20041;-67
2022/03/20 09:59:58;;;;;;;35.53;21.50;;;10.30;69.40;;;;;;4146292;28;20038;-67
2022/03/20 10:02:07;;;;;;;37.37;19.03;;;10.20;70.00;;;;;;4140286;28;20034;-67
2022/03/20 10:04:10;;;;;;;31.80;19.05;;;10.30;71.10;;;;;;4141427;28;20065;-67
2022/03/20 10:06:17;;;;;;;32.83;19.08;;;10.30;70.70;;;;;;4141597;28;20054;-67
2022/03/20 10:08:19;;;;;;;30.92;18.13;;;10.30;72.50;;;;;;4143653;28;20083;-67
2022/03/20 10:10:25;;;;;;;34.53;20.23;;;10.30;70.40;;;;;;4141790;28;20095;-67
2022/03/20 10:12:33;;;;;;;34.95;19.83;;;10.20;70.40;;;;;;4142332;28;20057;-67
2022/03/20 10:14:34;;;;;;;32.83;19.20;;;10.20;70.20;;;;;;4143811;28;20129;-66
2022/03/20 10:16:37;;;;;;;32.22;18.58;;;10.20;71.20;;;;;;4140875;28;20050;-67
2022/03/20 10:18:39;;;;;;;;;;;10.20;72.00;;;;;;4143760;28;20524;-67
2022/03/20 10:20:46;;;;;;;35.72;19.75;;;10.10;70.60;;;;;;4143529;28;19918;-67
2022/03/20 10:22:47;;;;;;;31.42;18.48;;;10.10;71.90;;;;;;4142669;28;20050;-67
2022/03/20 10:24:50;;;;;;;33.75;19.92;;;10.10;71.70;;;;;;4142472;28;20488;-67
2022/03/20 10:27:00;;;;;;;29.67;18.42;;;9.90;72.20;;;;;;4142780;28;20060;-67
2022/03/20 10:29:01;;;;;;;35.00;20.15;;;10.00;72.70;;;;;;4143755;28;20038;-67
2022/03/20 10:31:03;;;;;;;36.55;21.52;;;10.00;72.30;;;;;;4142513;28;20436;-67
2022/03/20 10:33:13;;;;;;;36.80;20.83;;;10.10;72.40;;;;;;4140869;28;20481;-66
2022/03/20 10:35:16;;;;;;;35.10;19.70;;;10.10;72.00;;;;;;4141338;28;20509;-67
2022/03/20 10:37:19;;;;;;;29.98;18.85;;;10.00;74.20;;;;;;4143721;28;20045;-67
2022/03/20 10:39:25;;;;;;;33.30;20.05;;;10.10;75.40;;;;;;4143184;28;20029;-66
2022/03/20 10:41:34;;;;;;;33.83;20.10;;;10.00;72.50;;;;;;4142101;28;20042;-67
2022/03/20 10:43:41;;;;;;;29.52;18.85;;;9.90;73.00;;;;;;4156939;28;20041;-66
2022/03/20 10:46:02;;;;;;;33.38;20.52;;;10.00;73.90;;;;;;4138176;28;20141;-67
2022/03/20 10:48:10;;;;;;;35.35;20.48;;;10.00;73.90;;;;;;4141821;28;20042;-67
2022/03/20 10:50:11;;;;;;;31.67;18.75;;;10.00;72.10;;;;;;4143654;28;20038;-67
2022/03/20 10:52:18;;;;;;;35.75;21.98;;;10.10;72.70;;;;;;4142883;28;20030;-67
2022/03/20 10:54:21;;;;;;;36.63;21.00;;;9.80;73.30;;;;;;4140506;28;20485;-66
2022/03/20 10:56:22;;;;;;;31.38;19.13;;;9.90;73.80;;;;;;4143555;28;20042;-67
2022/03/20 10:58:26;;;;;;;30.42;18.40;;;10.00;73.20;;;;;;4145134;28;20046;-66